createdAt,value
2023-07-27T00:01:19.589Z,49.10
2023-07-27T00:06:24.204Z,49.50
2023-07-27T00:11:28.438Z,49.70
2023-07-27T00:16:34.941Z,49.90
2023-07-27T00:21:39.948Z,50.10
2023-07-27T00:26:46.665Z,50.00
2023-07-27T00:31:53.021Z,50.10
2023-07-27T00:36:57.781Z,50.20
2023-07-27T00:42:03.006Z,50.20
2023-07-27T00:47:08.601Z,50.60
2023-07-27T00:52:12.184Z,50.90
2023-07-27T00:57:15.815Z,50.80
2023-07-27T01:02:21.123Z,51.20
2023-07-27T01:07:24.563Z,51.20
2023-07-27T01:12:29.737Z,51.50
2023-07-27T01:17:38.934Z,51.80
2023-07-27T01:22:53.513Z,51.50
2023-07-27T01:28:03.807Z,51.60
2023-07-27T01:33:12.341Z,51.90
2023-07-27T01:38:17.932Z,52.20
2023-07-27T01:43:21.869Z,52.60
2023-07-27T01:48:27.511Z,52.60
2023-07-27T01:53:32.530Z,52.90
2023-07-27T01:58:36.804Z,52.80
2023-07-27T02:03:42.847Z,52.60
2023-07-27T02:08:47.131Z,52.60
2023-07-27T02:14:01.290Z,52.30
2023-07-27T02:19:07.239Z,52.20
2023-07-27T02:24:10.648Z,51.90
2023-07-27T02:29:14.055Z,51.90
2023-07-27T02:34:18.730Z,51.70
2023-07-27T02:39:22.188Z,51.80
2023-07-27T02:44:25.515Z,51.80
2023-07-27T02:49:30.519Z,52.00
2023-07-27T02:54:33.868Z,52.10
2023-07-27T02:59:37.223Z,52.10
2023-07-27T03:04:42.148Z,52.10
2023-07-27T03:09:45.501Z,52.20
2023-07-27T03:14:48.937Z,52.30
2023-07-27T03:19:53.924Z,52.60
2023-07-27T03:24:59.625Z,52.60
2023-07-27T03:30:03.140Z,52.80
2023-07-27T03:35:08.443Z,52.90
2023-07-27T03:40:12.100Z,52.90
2023-07-27T03:45:15.765Z,53.00
2023-07-27T03:50:20.625Z,53.20
2023-07-27T03:55:24.257Z,53.10
2023-07-27T04:00:27.743Z,53.00
2023-07-27T04:05:32.851Z,53.20
2023-07-27T04:10:36.182Z,54.30
2023-07-27T04:15:40.297Z,53.40
2023-07-27T04:20:45.918Z,53.60
2023-07-27T04:25:49.413Z,53.70
2023-07-27T04:30:52.881Z,53.60
2023-07-27T04:36:02.276Z,53.50
2023-07-27T04:41:05.644Z,53.60
2023-07-27T04:46:08.980Z,53.80
2023-07-27T04:51:15.054Z,53.90
2023-07-27T04:56:18.428Z,54.00
2023-07-27T05:01:21.802Z,54.00
2023-07-27T05:06:27.796Z,54.20
2023-07-27T05:11:31.265Z,54.60
2023-07-27T05:16:35.119Z,54.60
2023-07-27T05:21:40.651Z,54.80
2023-07-27T05:26:44.171Z,55.00
2023-07-27T05:31:48.913Z,55.40
2023-07-27T05:36:53.673Z,56.00
2023-07-27T05:41:57.902Z,56.60
2023-07-27T05:47:01.265Z,56.50
2023-07-27T05:52:06.557Z,56.40
2023-07-27T05:57:10.094Z,56.30
2023-07-27T06:02:13.448Z,56.60
2023-07-27T06:07:18.212Z,56.70
2023-07-27T06:12:21.596Z,56.50
2023-07-27T06:17:26.975Z,56.30
2023-07-27T06:22:31.794Z,56.20
2023-07-27T06:27:35.190Z,56.00
2023-07-27T06:32:38.561Z,56.10
2023-07-27T06:37:43.878Z,56.00
2023-07-27T06:42:47.241Z,56.00
2023-07-27T06:47:50.973Z,56.00
2023-07-27T06:52:56.886Z,56.10
2023-07-27T06:58:00.222Z,56.10
2023-07-27T07:03:03.717Z,56.20
2023-07-27T07:08:08.650Z,56.00
2023-07-27T07:13:11.966Z,55.80
2023-07-27T07:18:15.241Z,55.70
2023-07-27T07:23:20.171Z,55.60
2023-07-27T07:28:24.598Z,55.60
2023-07-27T07:33:29.193Z,55.80
2023-07-27T07:38:33.901Z,55.60
2023-07-27T07:43:37.389Z,55.40
2023-07-27T07:48:40.938Z,55.70
2023-07-27T07:53:45.682Z,55.60
2023-07-27T07:58:48.988Z,55.40
2023-07-27T08:03:53.084Z,55.10
2023-07-27T08:08:58.018Z,55.10
2023-07-27T08:14:03.470Z,55.00
2023-07-27T08:19:06.842Z,54.60
2023-07-27T08:24:12.006Z,54.40
2023-07-27T08:29:15.358Z,54.20
2023-07-27T08:34:18.653Z,53.90
2023-07-27T08:39:23.365Z,53.70
2023-07-27T08:44:27.184Z,53.50
2023-07-27T08:49:30.788Z,53.20
2023-07-27T08:54:37.666Z,53.10
2023-07-27T08:59:41.711Z,52.90
2023-07-27T09:04:45.099Z,52.60
2023-07-27T09:09:53.322Z,52.30
2023-07-27T09:14:56.622Z,52.30
2023-07-27T09:20:00.942Z,51.80
2023-07-27T09:25:06.709Z,51.50
2023-07-27T09:30:10.238Z,51.30
2023-07-27T09:35:16.896Z,51.10
2023-07-27T09:40:22.657Z,50.80
2023-07-27T09:45:26.087Z,50.50
2023-07-27T09:50:30.305Z,49.80
2023-07-27T09:55:35.384Z,49.80
2023-07-27T10:00:38.822Z,49.30
2023-07-27T10:05:42.839Z,49.30
2023-07-27T10:10:54.247Z,48.80
2023-07-27T10:15:58.846Z,48.60
2023-07-27T10:21:17.060Z,48.10
2023-07-27T10:26:21.839Z,47.80
2023-07-27T10:31:25.889Z,47.60
2023-07-27T10:36:51.127Z,47.30
2023-07-27T10:42:03.510Z,47.10
2023-07-27T10:47:08.801Z,46.80
2023-07-27T10:52:15.555Z,45.80
2023-07-27T10:57:20.685Z,45.40
2023-07-27T11:02:24.980Z,45.20
2023-07-27T11:07:29.179Z,44.50
2023-07-27T11:12:33.907Z,44.20
2023-07-27T11:17:37.255Z,44.20
2023-07-27T11:22:40.657Z,44.00
2023-07-27T11:27:49.383Z,44.00
2023-07-27T11:32:59.457Z,43.60
2023-07-27T11:38:03.012Z,43.30
2023-07-27T11:43:07.743Z,43.40
2023-07-27T11:48:11.627Z,43.20
2023-07-27T11:53:29.530Z,43.30
2023-07-27T11:58:40.280Z,42.70
2023-07-27T12:03:47.040Z,42.40
2023-07-27T12:08:51.027Z,42.30
2023-07-27T12:13:59.866Z,41.70
2023-07-27T12:19:03.894Z,41.60
2023-07-27T12:34:25.371Z,40.80
2023-07-27T12:39:29.554Z,41.10
2023-07-27T12:44:34.297Z,41.40
2023-07-27T12:49:37.636Z,41.20
2023-07-27T12:54:40.941Z,40.80
2023-07-27T12:59:45.761Z,40.50
2023-07-27T13:04:49.114Z,40.30
2023-07-27T13:09:52.448Z,39.70
2023-07-27T13:14:57.106Z,39.60
2023-07-27T13:20:00.463Z,39.20
2023-07-27T13:25:03.979Z,39.20
2023-07-27T13:30:09.621Z,39.20
2023-07-27T13:35:13.023Z,39.10
2023-07-27T13:40:16.414Z,39.10
2023-07-27T13:45:21.127Z,39.40
2023-07-27T13:50:24.526Z,39.30
2023-07-27T13:55:27.832Z,39.10
2023-07-27T14:00:33.036Z,39.20
2023-07-27T14:05:36.811Z,39.30
2023-07-27T14:10:40.619Z,39.20
2023-07-27T14:15:45.413Z,38.90
2023-07-27T14:20:49.339Z,38.30
2023-07-27T14:25:52.842Z,38.30
2023-07-27T14:31:12.480Z,38.40
2023-07-27T14:36:16.774Z,38.00
2023-07-27T14:41:20.065Z,38.10
2023-07-27T14:46:25.320Z,38.10
2023-07-27T14:51:28.861Z,38.00
2023-07-27T14:56:34.131Z,37.60
2023-07-27T15:01:50.794Z,37.60
2023-07-27T15:06:54.785Z,37.40
2023-07-27T15:11:58.062Z,36.90
2023-07-27T15:17:02.724Z,36.80
2023-07-27T15:22:06.652Z,37.10
2023-07-27T15:27:10.820Z,37.20
2023-07-27T15:32:15.606Z,37.20
2023-07-27T15:37:18.954Z,37.20
2023-07-27T15:42:22.949Z,37.20
2023-07-27T15:47:27.952Z,36.70
2023-07-27T15:52:31.821Z,36.60
2023-07-27T15:57:35.165Z,36.70
2023-07-27T16:02:40.937Z,36.90
2023-07-27T16:07:44.322Z,37.00
2023-07-27T16:12:47.590Z,37.10
2023-07-27T16:17:52.349Z,37.10
2023-07-27T16:22:55.761Z,37.00
2023-07-27T16:27:59.199Z,37.00
2023-07-27T16:33:04.046Z,37.10
2023-07-27T16:38:07.395Z,37.30
2023-07-27T16:43:10.692Z,37.10
2023-07-27T16:48:17.171Z,36.80
2023-07-27T16:53:20.508Z,36.80
2023-07-27T16:58:24.016Z,36.70
2023-07-27T17:03:29.445Z,36.90
2023-07-27T17:08:32.781Z,36.90
2023-07-27T17:13:36.034Z,36.90
2023-07-27T17:18:41.800Z,36.90
2023-07-27T17:23:45.240Z,36.90
2023-07-27T17:28:48.703Z,36.80
2023-07-27T17:33:53.333Z,36.70
2023-07-27T17:38:56.601Z,36.80
2023-07-27T17:43:59.963Z,37.00
2023-07-27T17:49:04.843Z,37.10
2023-07-27T17:54:08.743Z,37.20
2023-07-27T17:59:12.394Z,37.50
2023-07-27T18:04:17.253Z,37.60
2023-07-27T18:09:20.887Z,37.80
2023-07-27T18:14:24.522Z,38.00
2023-07-27T18:19:29.591Z,38.10
2023-07-27T18:24:35.093Z,38.40
2023-07-27T18:29:38.649Z,38.60
2023-07-27T18:34:43.429Z,38.90
2023-07-27T18:39:49.115Z,39.10
2023-07-27T18:44:52.653Z,39.20
2023-07-27T18:49:57.397Z,39.50
2023-07-27T18:55:01.487Z,39.60
2023-07-27T19:00:05.799Z,40.10
2023-07-27T19:05:10.496Z,40.30
2023-07-27T19:10:13.813Z,40.60
2023-07-27T19:15:17.290Z,40.60
2023-07-27T19:20:23.010Z,40.70
2023-07-27T19:25:26.340Z,40.90
2023-07-27T19:30:30.339Z,41.50
2023-07-27T19:35:35.286Z,42.30
2023-07-27T19:40:38.656Z,43.00
2023-07-27T19:45:42.094Z,43.60
2023-07-27T19:50:52.288Z,44.10
2023-07-27T19:56:01.750Z,44.90
2023-07-27T20:01:05.605Z,45.40
2023-07-27T20:06:10.504Z,45.90
2023-07-27T20:11:16.071Z,46.00
2023-07-27T20:16:19.939Z,46.10
2023-07-27T20:21:24.782Z,46.10
2023-07-27T20:26:28.166Z,46.40
2023-07-27T20:31:31.606Z,46.50
2023-07-27T20:36:38.468Z,46.90
2023-07-27T20:41:41.819Z,47.10
2023-07-27T20:46:45.194Z,47.50
2023-07-27T20:51:50.000Z,48.00
2023-07-27T20:56:53.412Z,48.00
2023-07-27T21:01:56.801Z,48.10
2023-07-27T21:07:01.675Z,48.50
2023-07-27T21:12:06.059Z,48.70
2023-07-27T21:17:09.414Z,49.40
2023-07-27T21:22:14.543Z,49.80
2023-07-27T21:27:17.885Z,50.10
2023-07-27T21:32:21.205Z,50.30
2023-07-27T21:37:25.861Z,50.80
2023-07-27T21:42:29.237Z,51.40
2023-07-27T21:47:32.782Z,52.00
2023-07-27T21:52:37.556Z,52.40
2023-07-27T21:57:40.931Z,52.80
2023-07-27T22:02:44.407Z,53.20
2023-07-27T22:07:49.675Z,53.30
2023-07-27T22:12:54.369Z,53.80
2023-07-27T22:17:58.184Z,54.30
2023-07-27T22:23:02.941Z,55.00
2023-07-27T22:28:06.585Z,55.40
2023-07-27T22:33:09.973Z,55.70
2023-07-27T22:38:15.045Z,55.90
2023-07-27T22:43:18.651Z,56.00
2023-07-27T22:48:22.308Z,56.20
2023-07-27T22:53:27.186Z,56.40
2023-07-27T22:58:30.585Z,56.60
2023-07-27T23:03:33.884Z,56.70
2023-07-27T23:08:38.831Z,57.10
2023-07-27T23:13:42.190Z,57.20
2023-07-27T23:18:45.487Z,57.50
2023-07-27T23:23:50.231Z,57.70
2023-07-27T23:28:53.570Z,58.10
2023-07-27T23:33:57.500Z,58.30
2023-07-27T23:39:02.199Z,58.50
2023-07-27T23:44:05.858Z,58.70
2023-07-27T23:49:09.153Z,58.70
2023-07-27T23:54:14.216Z,58.80
2023-07-27T23:59:17.526Z,59.10
